createdAt,value
2018-08-31T00:03:58.572Z,23.7
2018-08-31T00:13:57.812Z,23.6
2018-08-31T00:23:57.112Z,23.6
2018-08-31T00:33:56.400Z,23.5
2018-08-31T00:43:55.539Z,23.4
2018-08-31T00:53:54.781Z,23.4
2018-08-31T01:03:54.021Z,23.3
2018-08-31T01:13:53.267Z,23.2
2018-08-31T01:23:52.505Z,23.1
2018-08-31T01:33:51.749Z,23.1
2018-08-31T01:43:50.995Z,23.1
2018-08-31T01:53:50.239Z,23.1
2018-08-31T02:03:49.477Z,23
2018-08-31T02:13:48.723Z,23
2018-08-31T02:23:47.961Z,22.9
2018-08-31T02:33:47.201Z,22.9
2018-08-31T02:43:46.442Z,22.8
2018-08-31T02:53:45.740Z,22.8
2018-08-31T03:03:44.924Z,22.7
2018-08-31T03:13:44.166Z,22.7
2018-08-31T03:23:43.407Z,22.6
2018-08-31T03:33:42.645Z,22.6
2018-08-31T03:43:41.884Z,22.5
2018-08-31T03:53:41.124Z,22.4
2018-08-31T04:03:40.364Z,22.3
2018-08-31T04:13:39.606Z,22.3
2018-08-31T04:23:38.850Z,22.3
2018-08-31T04:33:38.088Z,22.4
2018-08-31T04:43:37.330Z,22.6
2018-08-31T04:53:36.576Z,22.8
2018-08-31T05:03:35.812Z,22.9
2018-08-31T05:13:35.056Z,23.2
2018-08-31T05:23:34.295Z,23.4
2018-08-31T05:33:33.541Z,23.6
2018-08-31T05:43:32.787Z,23.8
2018-08-31T05:53:32.030Z,24.1
2018-08-31T06:03:31.269Z,24.3
2018-08-31T06:13:30.506Z,24.6
2018-08-31T06:23:29.748Z,24.9
2018-08-31T06:33:28.987Z,25.3
2018-08-31T06:43:28.232Z,25.3
2018-08-31T06:53:27.469Z,25.1
2018-08-31T07:03:26.717Z,25.3
2018-08-31T07:13:25.952Z,25.4
2018-08-31T07:23:25.193Z,25.9
2018-08-31T07:33:24.439Z,26.5
2018-08-31T07:43:23.679Z,26.3
2018-08-31T07:53:22.923Z,26.6
2018-08-31T08:03:22.164Z,26.5
2018-08-31T08:13:21.415Z,27.1
2018-08-31T08:23:20.656Z,27.3
2018-08-31T08:33:19.889Z,27.1
2018-08-31T08:43:19.135Z,27.4
2018-08-31T08:53:18.374Z,27.6
2018-08-31T09:03:17.624Z,27.9
2018-08-31T09:13:16.857Z,27.9
2018-08-31T09:23:16.099Z,28.1
2018-08-31T09:33:15.343Z,28.4
2018-08-31T09:43:14.589Z,28.4
2018-08-31T09:53:13.827Z,28.3
2018-08-31T10:03:13.124Z,28.6
2018-08-31T10:13:12.326Z,28.6
2018-08-31T10:23:11.556Z,29.3
2018-08-31T10:33:10.803Z,29
2018-08-31T10:43:10.052Z,29.1
2018-08-31T10:53:09.290Z,29.5
2018-08-31T11:03:08.538Z,29.4
2018-08-31T11:13:07.830Z,29.1
2018-08-31T11:23:07.023Z,28.9
2018-08-31T11:33:06.259Z,29.1
2018-08-31T11:43:05.506Z,28.9
2018-08-31T11:53:04.745Z,28.9
2018-08-31T12:03:03.987Z,28.8
2018-08-31T12:13:03.233Z,28.8
2018-08-31T12:23:02.476Z,28.6
2018-08-31T12:33:01.712Z,28.7
2018-08-31T12:43:00.957Z,28.6
2018-08-31T12:53:00.196Z,28.6
2018-08-31T13:02:59.445Z,28.5
2018-08-31T13:12:58.681Z,28.4
2018-08-31T13:22:57.925Z,28.4
2018-08-31T13:32:57.173Z,28.4
2018-08-31T13:42:56.415Z,28.4
2018-08-31T13:52:55.657Z,28.4
2018-08-31T14:02:54.904Z,28.4
2018-08-31T14:12:54.199Z,28.3
2018-08-31T14:22:53.399Z,28.4
2018-08-31T14:32:52.651Z,28.3
2018-08-31T14:42:51.890Z,28.3
2018-08-31T14:52:51.178Z,28.3
2018-08-31T15:02:50.378Z,28.3
2018-08-31T15:12:49.677Z,28.1
2018-08-31T15:22:48.865Z,28.1
2018-08-31T15:32:48.114Z,27.9
2018-08-31T15:42:47.358Z,27.7
2018-08-31T15:52:46.591Z,27.6
2018-08-31T16:02:45.835Z,27.4
2018-08-31T16:12:45.078Z,27.3
2018-08-31T16:22:44.323Z,27.3
2018-08-31T16:32:43.567Z,27.2
2018-08-31T16:42:42.812Z,27
2018-08-31T16:52:42.054Z,26.9
2018-08-31T17:02:41.294Z,26.8
2018-08-31T17:12:40.538Z,26.6
2018-08-31T17:22:39.786Z,26.6
2018-08-31T17:32:39.030Z,26.6
2018-08-31T17:42:38.325Z,26.6
2018-08-31T17:52:37.516Z,26.5
2018-08-31T18:02:36.764Z,26.3
2018-08-31T18:12:36.012Z,25.8
2018-08-31T18:22:35.247Z,25.7
2018-08-31T18:32:34.489Z,25.5
2018-08-31T18:42:33.734Z,25.4
2018-08-31T18:52:33.067Z,25.4
2018-08-31T19:02:32.226Z,25.3
2018-08-31T19:12:31.459Z,25.1
2018-08-31T19:22:30.711Z,25.1
2018-08-31T19:32:29.951Z,24.9
2018-08-31T19:42:29.186Z,25
2018-08-31T19:52:28.426Z,24.9
2018-08-31T20:02:27.687Z,25.1
2018-08-31T20:12:26.953Z,25.1
2018-08-31T20:22:26.153Z,25
2018-08-31T20:32:25.400Z,25
2018-08-31T20:42:24.635Z,24.9
2018-08-31T20:52:23.878Z,24.9
2018-08-31T21:02:23.132Z,24.9
2018-08-31T21:12:22.361Z,24.8
2018-08-31T21:22:21.600Z,24.8
2018-08-31T21:32:20.845Z,24.8
2018-08-31T21:42:20.139Z,24.8
2018-08-31T21:52:19.330Z,24.8
2018-08-31T22:02:18.565Z,24.8
2018-08-31T22:12:17.810Z,24.7
2018-08-31T22:22:17.045Z,24.6
2018-08-31T22:32:16.287Z,24.6
2018-08-31T22:42:15.535Z,24.4
2018-08-31T22:52:14.770Z,24.4
2018-08-31T23:02:14.010Z,24.3
2018-08-31T23:12:13.253Z,24.2
2018-08-31T23:22:12.493Z,24.1
2018-08-31T23:32:11.733Z,24.1
2018-08-31T23:42:11.023Z,23.9
2018-08-31T23:52:10.214Z,23.9
